createdAt,value
2022-09-13T00:00:53.662Z,100615.97
2022-09-13T00:03:20.989Z,100611.81
2022-09-13T00:05:48.377Z,100611.88
2022-09-13T00:08:16.101Z,100603.81
2022-09-13T00:10:44.292Z,100601.88
2022-09-13T00:13:12.474Z,100605.41
2022-09-13T00:15:49.661Z,100600.09
2022-09-13T00:18:17.441Z,100600.94
2022-09-13T00:20:44.871Z,100593.81
2022-09-13T00:23:12.267Z,100595.56
2022-09-13T00:25:39.883Z,100591.41
2022-09-13T00:28:07.157Z,100589.09
2022-09-13T00:30:34.519Z,100590.75
2022-09-13T00:33:04.780Z,100592.59
2022-09-13T00:35:32.155Z,100593.72
2022-09-13T00:38:00.033Z,100594.09
2022-09-13T00:40:27.543Z,100590.44
2022-09-13T00:42:54.801Z,100589.38
2022-09-13T00:45:21.998Z,100596.97
2022-09-13T00:47:53.952Z,100600.00
2022-09-13T00:50:24.617Z,100594.41
2022-09-13T00:53:03.744Z,100588.56
2022-09-13T00:55:35.162Z,100595.75
2022-09-13T00:58:08.583Z,100596.59
2022-09-13T01:00:36.373Z,100595.22
2022-09-13T01:03:07.035Z,100598.13
2022-09-13T01:05:37.566Z,100601.50
2022-09-13T01:08:16.013Z,100599.00
2022-09-13T01:10:44.425Z,100588.94
2022-09-13T01:13:17.013Z,100599.00
2022-09-13T01:15:44.501Z,100598.34
2022-09-13T01:18:11.772Z,100587.84
2022-09-13T01:20:53.413Z,100588.38
2022-09-13T01:23:39.310Z,100584.56
2022-09-13T01:26:06.495Z,100585.47
2022-09-13T01:28:42.814Z,100580.06
2022-09-13T01:31:28.593Z,100581.88
2022-09-13T01:34:13.674Z,100576.91
2022-09-13T01:36:48.121Z,100588.16
2022-09-13T01:39:19.560Z,100582.28
2022-09-13T01:41:49.832Z,100577.97
2022-09-13T01:44:28.225Z,100578.41
2022-09-13T01:47:18.323Z,100575.38
2022-09-13T01:49:48.753Z,100583.06
2022-09-13T01:52:16.001Z,100581.88
2022-09-13T01:54:48.335Z,100581.47
2022-09-13T01:57:37.945Z,100585.13
2022-09-13T02:00:10.527Z,100579.06
2022-09-13T02:02:40.639Z,100575.06
2022-09-13T02:05:31.160Z,100579.81
2022-09-13T02:08:02.445Z,100580.03
2022-09-13T02:10:36.278Z,100582.09
2022-09-13T02:13:05.911Z,100585.00
2022-09-13T02:15:44.270Z,100583.16
2022-09-13T02:18:15.417Z,100576.53
2022-09-13T02:20:44.725Z,100575.13
2022-09-13T02:23:22.910Z,100574.16
2022-09-13T02:25:51.126Z,100568.63
2022-09-13T02:28:22.450Z,100568.41
2022-09-13T02:30:52.171Z,100563.47
2022-09-13T02:33:24.014Z,100560.53
2022-09-13T02:35:53.593Z,100562.25
2022-09-13T02:38:28.114Z,100553.41
2022-09-13T02:41:06.842Z,100552.75
2022-09-13T02:43:44.226Z,100551.88
2022-09-13T02:46:27.352Z,100552.19
2022-09-13T02:49:07.216Z,100560.41
2022-09-13T02:51:46.651Z,100554.25
2022-09-13T02:54:20.934Z,100543.59
2022-09-13T02:56:53.216Z,100545.56
2022-09-13T02:59:22.030Z,100544.78
2022-09-13T03:01:50.947Z,100538.53
2022-09-13T03:04:18.259Z,100533.19
2022-09-13T03:06:45.789Z,100529.44
2022-09-13T03:09:13.221Z,100526.53
2022-09-13T03:12:03.467Z,100523.72
2022-09-13T03:14:49.133Z,100528.81
2022-09-13T03:17:19.396Z,100521.69
2022-09-13T03:19:52.421Z,100520.91
2022-09-13T03:22:38.029Z,100521.00
2022-09-13T03:25:23.984Z,100522.09
2022-09-13T03:27:57.222Z,100519.38
2022-09-13T03:30:24.377Z,100514.22
2022-09-13T03:33:05.062Z,100518.09
2022-09-13T03:35:32.197Z,100516.91
2022-09-13T03:37:59.324Z,100515.16
2022-09-13T03:40:31.164Z,100506.69
2022-09-13T03:43:01.337Z,100511.63
2022-09-13T03:45:31.431Z,100517.91
2022-09-13T03:47:59.025Z,100514.34
2022-09-13T03:50:26.757Z,100509.94
2022-09-13T03:52:58.624Z,100508.72
2022-09-13T03:55:26.236Z,100505.88
2022-09-13T03:57:53.410Z,100505.50
2022-09-13T04:00:20.937Z,100511.97
2022-09-13T04:02:48.116Z,100506.84
2022-09-13T04:05:15.256Z,100513.00
2022-09-13T04:07:42.502Z,100515.31
2022-09-13T04:10:13.557Z,100510.03
2022-09-13T04:12:41.424Z,100514.41
2022-09-13T04:15:08.996Z,100515.25
2022-09-13T04:17:36.398Z,100516.13
2022-09-13T04:20:04.598Z,100518.75
2022-09-13T04:22:31.851Z,100515.59
2022-09-13T04:25:02.430Z,100511.53
2022-09-13T04:27:30.044Z,100509.75
2022-09-13T04:29:57.256Z,100513.38
2022-09-13T04:32:24.590Z,100514.81
2022-09-13T04:34:51.786Z,100519.84
2022-09-13T04:37:18.960Z,100518.34
2022-09-13T04:39:46.240Z,100517.84
2022-09-13T04:42:13.528Z,100518.00
2022-09-13T04:44:40.749Z,100513.34
2022-09-13T04:47:08.872Z,100517.53
2022-09-13T04:49:36.055Z,100522.72
2022-09-13T04:52:03.594Z,100520.50
2022-09-13T04:54:31.315Z,100518.00
2022-09-13T04:56:58.507Z,100517.91
2022-09-13T04:59:25.742Z,100514.97
2022-09-13T05:01:53.032Z,100517.03
2022-09-13T05:04:20.314Z,100520.94
2022-09-13T05:06:48.505Z,100521.09
2022-09-13T05:09:16.113Z,100526.56
2022-09-13T05:11:43.381Z,100530.84
2022-09-13T05:14:11.241Z,100528.75
2022-09-13T05:16:38.450Z,100523.41
2022-09-13T05:19:05.701Z,100517.53
2022-09-13T05:21:33.072Z,100531.38
2022-09-13T05:24:00.315Z,100527.88
2022-09-13T05:26:31.402Z,100528.59
2022-09-13T05:28:59.483Z,100531.97
2022-09-13T05:31:37.637Z,100538.13
2022-09-13T05:34:06.686Z,100533.78
2022-09-13T05:36:33.966Z,100533.91
2022-09-13T05:39:28.423Z,100542.00
2022-09-13T05:41:51.133Z,100548.81
2022-09-13T05:44:18.347Z,100544.34
2022-09-13T05:46:48.817Z,100544.16
2022-09-13T05:49:16.231Z,100545.03
2022-09-13T05:51:43.417Z,100542.09
2022-09-13T05:54:11.675Z,100544.41
2022-09-13T05:56:38.961Z,100537.75
2022-09-13T05:59:06.125Z,100539.63
2022-09-13T06:01:33.458Z,100528.03
2022-09-13T06:04:00.721Z,100535.84
2022-09-13T06:06:27.966Z,100531.09
2022-09-13T06:08:56.099Z,100530.97
2022-09-13T06:11:23.834Z,100534.25
2022-09-13T06:13:51.115Z,100539.22
2022-09-13T06:16:18.351Z,100544.41
2022-09-13T06:18:45.733Z,100541.38
2022-09-13T06:21:17.791Z,100545.50
2022-09-13T06:23:46.093Z,100536.44
2022-09-13T06:26:14.499Z,100537.94
2022-09-13T06:28:41.935Z,100547.88
2022-09-13T06:31:10.575Z,100544.22
2022-09-13T06:33:38.826Z,100553.22
2022-09-13T06:36:07.818Z,100547.47
2022-09-13T06:38:35.535Z,100549.53
2022-09-13T06:41:07.758Z,100547.28
2022-09-13T06:43:35.168Z,100554.81
2022-09-13T06:46:07.052Z,100558.75
2022-09-13T06:48:35.380Z,100558.41
2022-09-13T06:51:03.990Z,100549.81
2022-09-13T06:53:31.280Z,100545.28
2022-09-13T06:56:04.397Z,100544.50
2022-09-13T06:58:32.074Z,100548.25
2022-09-13T07:01:12.585Z,100547.13
2022-09-13T07:03:40.962Z,100539.28
2022-09-13T07:06:12.957Z,100544.34
2022-09-13T07:08:40.777Z,100545.19
2022-09-13T07:11:09.489Z,100540.81
2022-09-13T07:13:36.737Z,100534.34
2022-09-13T07:16:08.805Z,100542.09
2022-09-13T07:18:36.402Z,100544.63
2022-09-13T07:21:05.462Z,100548.94
2022-09-13T07:23:33.444Z,100542.44
2022-09-13T07:26:05.602Z,100544.91
2022-09-13T07:28:35.511Z,100545.41
2022-09-13T07:31:10.621Z,100554.72
2022-09-13T07:33:38.855Z,100552.78
2022-09-13T07:36:07.053Z,100534.25
2022-09-13T07:38:35.053Z,100531.44
2022-09-13T07:41:03.032Z,100536.97
2022-09-13T07:43:30.251Z,100532.16
2022-09-13T07:46:18.373Z,100535.41
2022-09-13T07:48:46.257Z,100541.53
2022-09-13T07:51:17.852Z,100534.38
2022-09-13T07:53:45.867Z,100542.41
2022-09-13T07:56:14.277Z,100541.69
2022-09-13T07:58:42.402Z,100542.81
2022-09-13T08:01:26.039Z,100558.25
2022-09-13T08:03:57.720Z,100558.25
2022-09-13T08:06:25.892Z,100553.31
2022-09-13T08:08:53.246Z,100551.94
2022-09-13T08:11:21.902Z,100554.28
2022-09-13T08:13:49.828Z,100555.56
2022-09-13T08:16:18.294Z,100558.16
2022-09-13T08:18:47.082Z,100562.56
2022-09-13T08:21:14.330Z,100554.94
2022-09-13T08:23:42.169Z,100555.50
2022-09-13T08:26:10.657Z,100555.84
2022-09-13T08:28:40.399Z,100568.91
2022-09-13T08:31:09.022Z,100563.38
2022-09-13T08:33:36.365Z,100559.22
2022-09-13T08:36:04.288Z,100564.38
2022-09-13T08:38:32.242Z,100567.25
2022-09-13T08:41:02.079Z,100563.72
2022-09-13T08:43:29.618Z,100564.00
2022-09-13T08:46:23.393Z,100559.72
2022-09-13T08:48:52.849Z,100566.72
2022-09-13T08:51:25.206Z,100574.09
2022-09-13T08:53:52.611Z,100576.72
2022-09-13T08:56:23.608Z,100578.03
2022-09-13T08:59:05.939Z,100576.34
2022-09-13T09:01:52.155Z,100565.50
2022-09-13T09:04:19.435Z,100568.56
2022-09-13T09:06:46.914Z,100569.69
2022-09-13T09:09:16.867Z,100564.38
2022-09-13T09:12:03.483Z,100568.09
2022-09-13T09:14:33.411Z,100562.56
2022-09-13T09:17:04.197Z,100563.88
2022-09-13T09:19:36.776Z,100569.63
2022-09-13T09:22:05.903Z,100574.47
2022-09-13T09:24:36.376Z,100574.31
2022-09-13T09:27:14.058Z,100570.88
2022-09-13T09:29:44.672Z,100571.84
2022-09-13T09:32:18.419Z,100580.44
2022-09-13T09:34:54.406Z,100580.59
2022-09-13T09:37:25.099Z,100581.44
2022-09-13T09:39:53.209Z,100583.16
2022-09-13T09:42:25.508Z,100573.13
2022-09-13T09:44:58.057Z,100573.41
2022-09-13T09:47:30.376Z,100567.47
2022-09-13T09:50:10.314Z,100564.50
2022-09-13T09:52:44.911Z,100561.16
2022-09-13T09:55:15.641Z,100566.91
2022-09-13T09:57:52.274Z,100567.19
2022-09-13T10:00:20.192Z,100569.09
2022-09-13T10:02:48.583Z,100562.19
2022-09-13T10:05:19.592Z,100556.97
2022-09-13T10:07:54.467Z,100551.53
2022-09-13T10:10:24.952Z,100547.50
2022-09-13T10:12:56.637Z,100541.50
2022-09-13T10:15:26.015Z,100539.59
2022-09-13T10:18:16.832Z,100538.69
2022-09-13T10:21:00.934Z,100542.63
2022-09-13T10:23:28.149Z,100557.81
2022-09-13T10:26:21.708Z,100542.91
2022-09-13T10:29:09.057Z,100541.09
2022-09-13T10:31:38.792Z,100534.06
2022-09-13T10:34:15.562Z,100526.91
2022-09-13T10:36:54.620Z,100522.09
2022-09-13T10:39:22.958Z,100523.13
2022-09-13T10:41:52.940Z,100524.75
2022-09-13T10:44:40.336Z,100518.00
2022-09-13T10:47:26.503Z,100523.47
2022-09-13T10:49:54.856Z,100517.16
2022-09-13T10:52:25.084Z,100513.84
2022-09-13T10:54:52.537Z,100512.84
2022-09-13T10:57:28.916Z,100511.69
2022-09-13T10:59:56.089Z,100508.09
2022-09-13T11:02:36.922Z,100507.66
2022-09-13T11:05:06.959Z,100489.56
2022-09-13T11:07:40.462Z,100487.84
2022-09-13T11:10:16.417Z,100492.03
2022-09-13T11:12:46.302Z,100487.56
2022-09-13T11:15:18.232Z,100484.44
2022-09-13T11:18:14.511Z,100485.13
2022-09-13T11:20:57.894Z,100480.38
2022-09-13T11:23:40.636Z,100482.94
2022-09-13T11:26:10.887Z,100481.38
2022-09-13T11:28:40.994Z,100481.69
2022-09-13T11:31:20.443Z,100482.41
2022-09-13T11:33:47.715Z,100479.53
2022-09-13T11:36:24.050Z,100479.97
2022-09-13T11:38:54.031Z,100486.00
2022-09-13T11:41:34.464Z,100480.81
2022-09-13T11:44:16.011Z,100480.22
2022-09-13T11:46:46.038Z,100486.09
2022-09-13T11:49:28.471Z,100497.56
2022-09-13T11:51:56.210Z,100490.53
2022-09-13T11:54:33.193Z,100480.50
2022-09-13T11:57:02.895Z,100477.19
2022-09-13T11:59:35.690Z,100472.19
2022-09-13T12:02:10.463Z,100466.50
2022-09-13T12:04:43.741Z,100464.16
2022-09-13T12:07:14.378Z,100467.88
2022-09-13T12:09:47.958Z,100468.88
2022-09-13T12:12:15.523Z,100457.81
2022-09-13T12:14:49.423Z,100460.38
2022-09-13T12:17:29.323Z,100454.22
2022-09-13T12:20:00.272Z,100446.72
2022-09-13T12:22:31.013Z,100437.53
2022-09-13T12:24:59.489Z,100441.44
2022-09-13T12:27:29.826Z,100439.41
2022-09-13T12:30:02.763Z,100432.97
2022-09-13T12:32:38.059Z,100439.22
2022-09-13T12:35:13.807Z,100443.63
2022-09-13T12:37:59.415Z,100438.56
2022-09-13T12:40:37.952Z,100426.22
2022-09-13T12:43:08.593Z,100435.16
2022-09-13T12:45:35.728Z,100427.81
2022-09-13T12:48:11.980Z,100428.34
2022-09-13T12:50:43.807Z,100418.16
2022-09-13T12:53:29.892Z,100423.91
2022-09-13T12:56:02.827Z,100420.31
2022-09-13T12:58:36.120Z,100412.38
2022-09-13T13:01:09.826Z,100426.03
2022-09-13T13:03:45.112Z,100424.50
2022-09-13T13:06:27.442Z,100419.63
2022-09-13T13:08:59.164Z,100418.16
2022-09-13T13:11:27.762Z,100412.28
2022-09-13T13:14:09.328Z,100414.44
2022-09-13T13:16:38.933Z,100411.56
2022-09-13T13:19:26.074Z,100411.25
2022-09-13T13:21:54.387Z,100409.25
2022-09-13T13:24:21.556Z,100406.50
2022-09-13T13:26:50.682Z,100411.69
2022-09-13T13:29:19.842Z,100409.66
2022-09-13T13:32:07.877Z,100410.25
2022-09-13T13:34:42.667Z,100407.69
2022-09-13T13:37:09.786Z,100400.50
2022-09-13T13:39:46.625Z,100399.47
2022-09-13T13:42:20.262Z,100394.72
2022-09-13T13:44:47.529Z,100399.59
2022-09-13T13:47:14.715Z,100395.28
2022-09-13T13:49:50.100Z,100400.19
2022-09-13T13:52:35.728Z,100404.50
2022-09-13T13:55:21.417Z,100394.09
2022-09-13T13:58:03.067Z,100395.72
2022-09-13T14:00:31.600Z,100395.19
2022-09-13T14:02:58.889Z,100403.38
2022-09-13T14:05:29.100Z,100398.94
2022-09-13T14:07:56.242Z,100402.00
2022-09-13T14:10:45.805Z,100392.41
2022-09-13T14:13:31.633Z,100401.84
2022-09-13T14:16:09.984Z,100400.75
2022-09-13T14:19:00.160Z,100396.75
2022-09-13T14:21:30.741Z,100399.78
2022-09-13T14:24:18.663Z,100401.50
2022-09-13T14:26:50.976Z,100387.97
2022-09-13T14:29:19.919Z,100396.91
2022-09-13T14:31:48.398Z,100386.84
2022-09-13T14:34:35.648Z,100393.16
2022-09-13T14:37:04.830Z,100391.28
2022-09-13T14:39:32.388Z,100384.38
2022-09-13T14:42:00.364Z,100387.50
2022-09-13T14:44:29.353Z,100386.94
2022-09-13T14:47:01.752Z,100379.06
2022-09-13T14:49:33.158Z,100380.22
2022-09-13T14:52:03.385Z,100373.19
2022-09-13T14:54:30.648Z,100371.31
2022-09-13T14:57:00.121Z,100375.75
2022-09-13T14:59:36.724Z,100373.88
2022-09-13T15:02:23.773Z,100370.00
2022-09-13T15:04:53.099Z,100377.94
2022-09-13T15:07:22.736Z,100370.63
2022-09-13T15:09:51.322Z,100372.00
2022-09-13T15:12:28.758Z,100370.75
2022-09-13T15:15:14.728Z,100368.75
2022-09-13T15:18:01.612Z,100367.88
2022-09-13T15:20:30.984Z,100368.13
2022-09-13T15:22:58.470Z,100362.69
2022-09-13T15:25:29.476Z,100361.09
2022-09-13T15:27:57.414Z,100359.06
2022-09-13T15:30:41.413Z,100361.88
2022-09-13T15:33:08.610Z,100351.13
2022-09-13T15:35:37.012Z,100359.38
2022-09-13T15:38:22.777Z,100363.56
2022-09-13T15:41:00.963Z,100363.28
2022-09-13T15:43:28.461Z,100360.31
2022-09-13T15:45:59.709Z,100361.06
2022-09-13T15:48:28.895Z,100362.75
2022-09-13T15:51:07.501Z,100361.78
2022-09-13T15:53:35.811Z,100365.25
2022-09-13T15:56:03.892Z,100358.53
2022-09-13T15:58:31.464Z,100351.94
2022-09-13T16:00:58.860Z,100359.25
2022-09-13T16:03:26.379Z,100357.69
2022-09-13T16:05:53.945Z,100349.97
2022-09-13T16:08:21.128Z,100360.31
2022-09-13T16:10:48.340Z,100358.03
2022-09-13T16:13:15.555Z,100362.38
2022-09-13T16:15:42.829Z,100350.44
2022-09-13T16:18:10.640Z,100344.84
2022-09-13T16:20:37.788Z,100348.00
2022-09-13T16:23:05.023Z,100347.50
2022-09-13T16:25:32.227Z,100346.31
2022-09-13T16:27:59.832Z,100351.94
2022-09-13T16:30:30.433Z,100342.72
2022-09-13T16:32:58.693Z,100345.28
2022-09-13T16:35:30.488Z,100347.38
2022-09-13T16:37:57.917Z,100340.94
2022-09-13T16:40:25.235Z,100341.66
2022-09-13T16:42:52.577Z,100347.56
2022-09-13T16:45:20.038Z,100353.88
2022-09-13T16:47:47.455Z,100351.31
2022-09-13T16:50:14.716Z,100355.34
2022-09-13T16:52:42.234Z,100348.88
2022-09-13T16:55:09.576Z,100356.22
2022-09-13T16:57:37.382Z,100363.38
2022-09-13T17:00:08.876Z,100347.72
2022-09-13T17:02:36.263Z,100361.66
2022-09-13T17:05:05.373Z,100360.66
2022-09-13T17:07:32.583Z,100365.66
2022-09-13T17:10:00.481Z,100367.25
2022-09-13T17:12:27.845Z,100367.81
2022-09-13T17:14:55.825Z,100368.81
2022-09-13T17:17:23.060Z,100365.09
2022-09-13T17:19:50.585Z,100366.69
2022-09-13T17:22:17.800Z,100373.44
2022-09-13T17:24:44.978Z,100370.88
2022-09-13T17:27:12.142Z,100372.16
2022-09-13T17:29:39.440Z,100373.47
2022-09-13T17:32:06.622Z,100370.59
2022-09-13T17:34:34.709Z,100370.88
2022-09-13T17:37:03.715Z,100367.16
2022-09-13T17:39:31.158Z,100368.72
2022-09-13T17:41:58.667Z,100373.78
2022-09-13T17:44:26.084Z,100387.97
2022-09-13T17:46:53.302Z,100379.22
2022-09-13T17:49:20.632Z,100393.88
2022-09-13T17:51:47.899Z,100392.28
2022-09-13T17:54:15.135Z,100387.97
2022-09-13T17:56:43.706Z,100391.00
2022-09-13T17:59:15.248Z,100391.72
2022-09-13T18:01:45.686Z,100393.13
2022-09-13T18:04:13.873Z,100394.72
2022-09-13T18:06:42.789Z,100398.59
2022-09-13T18:09:10.935Z,100396.59
2022-09-13T18:11:39.018Z,100406.03
2022-09-13T18:14:06.514Z,100409.78
2022-09-13T18:16:33.908Z,100404.78
2022-09-13T18:19:01.706Z,100403.63
2022-09-13T18:21:29.318Z,100402.31
2022-09-13T18:23:58.773Z,100401.16
2022-09-13T18:26:26.780Z,100402.16
2022-09-13T18:28:59.151Z,100411.50
2022-09-13T18:31:26.454Z,100405.03
2022-09-13T18:33:54.992Z,100413.22
2022-09-13T18:36:22.787Z,100406.06
2022-09-13T18:38:50.044Z,100407.34
2022-09-13T18:41:18.721Z,100416.19
2022-09-13T18:43:50.591Z,100421.34
2022-09-13T18:46:21.392Z,100417.59
2022-09-13T18:48:49.323Z,100424.66
2022-09-13T18:51:18.237Z,100419.31
2022-09-13T18:53:45.760Z,100422.63
2022-09-13T18:56:14.688Z,100422.03
2022-09-13T18:58:42.137Z,100434.22
2022-09-13T19:01:10.848Z,100440.94
2022-09-13T19:03:38.800Z,100442.53
2022-09-13T19:06:10.455Z,100437.06
2022-09-13T19:08:37.676Z,100447.66
2022-09-13T19:11:05.245Z,100444.03
2022-09-13T19:13:32.692Z,100438.47
2022-09-13T19:16:00.643Z,100445.94
2022-09-13T19:18:28.290Z,100439.78
2022-09-13T19:21:02.704Z,100445.50
2022-09-13T19:23:55.543Z,100453.03
2022-09-13T19:26:19.972Z,100455.03
2022-09-13T19:28:48.424Z,100452.34
2022-09-13T19:31:15.858Z,100456.66
2022-09-13T19:33:44.288Z,100459.47
2022-09-13T19:36:12.533Z,100461.41
2022-09-13T19:38:40.073Z,100463.38
2022-09-13T19:41:09.805Z,100466.94
2022-09-13T19:43:38.125Z,100475.63
2022-09-13T19:46:06.656Z,100473.34
2022-09-13T19:48:44.017Z,100472.19
2022-09-13T19:51:13.035Z,100476.06
2022-09-13T19:53:56.375Z,100472.13
2022-09-13T19:56:29.442Z,100472.84
2022-09-13T19:58:56.593Z,100472.28
2022-09-13T20:01:31.631Z,100459.63
2022-09-13T20:03:59.949Z,100459.94
2022-09-13T20:06:27.906Z,100457.00
2022-09-13T20:08:59.533Z,100463.06
2022-09-13T20:11:28.545Z,100455.31
2022-09-13T20:13:56.193Z,100452.47
2022-09-13T20:16:24.705Z,100460.88
2022-09-13T20:18:52.225Z,100465.91
2022-09-13T20:21:19.659Z,100473.19
2022-09-13T20:23:46.918Z,100468.97
2022-09-13T20:26:15.546Z,100477.34
2022-09-13T20:28:43.082Z,100466.25
2022-09-13T20:31:10.443Z,100469.34
2022-09-13T20:33:39.320Z,100472.38
2022-09-13T20:36:09.550Z,100468.78
2022-09-13T20:38:37.052Z,100467.66
2022-09-13T20:41:05.779Z,100469.53
2022-09-13T20:43:33.584Z,100467.22
2022-09-13T20:46:02.416Z,100458.25
2022-09-13T20:48:29.681Z,100456.72
2022-09-13T20:50:57.585Z,100470.44
2022-09-13T20:53:24.704Z,100474.59
2022-09-13T20:55:52.731Z,100476.41
2022-09-13T20:58:20.999Z,100476.47
2022-09-13T21:00:49.021Z,100471.03
2022-09-13T21:03:16.585Z,100469.50
2022-09-13T21:05:43.831Z,100473.94
2022-09-13T21:08:33.012Z,100468.38
2022-09-13T21:11:04.098Z,100467.81
2022-09-13T21:13:33.366Z,100468.44
2022-09-13T21:16:07.247Z,100478.69
2022-09-13T21:18:34.697Z,100466.56
2022-09-13T21:21:03.424Z,100465.38
2022-09-13T21:23:31.967Z,100478.97
2022-09-13T21:26:07.128Z,100474.81
2022-09-13T21:28:37.804Z,100480.97
2022-09-13T21:31:06.129Z,100466.41
2022-09-13T21:33:34.214Z,100478.91
2022-09-13T21:36:02.878Z,100480.50
2022-09-13T21:38:31.006Z,100482.63
2022-09-13T21:41:00.596Z,100474.47
2022-09-13T21:43:28.021Z,100479.91
2022-09-13T21:45:59.563Z,100475.41
2022-09-13T21:48:28.126Z,100478.75
2022-09-13T21:51:00.373Z,100472.34
2022-09-13T21:53:29.110Z,100463.78
2022-09-13T21:55:56.310Z,100455.81
2022-09-13T21:58:23.489Z,100457.28
2022-09-13T22:00:50.741Z,100457.50
2022-09-13T22:03:17.976Z,100454.13
2022-09-13T22:05:46.472Z,100444.34
2022-09-13T22:08:13.606Z,100445.94
2022-09-13T22:10:40.841Z,100433.47
2022-09-13T22:13:08.157Z,100429.34
2022-09-13T22:15:35.587Z,100430.66
2022-09-13T22:18:02.822Z,100427.22
2022-09-13T22:20:29.979Z,100435.00
2022-09-13T22:22:57.198Z,100445.03
2022-09-13T22:25:24.475Z,100436.72
2022-09-13T22:27:52.211Z,100432.81
2022-09-13T22:30:19.366Z,100441.44
2022-09-13T22:32:46.530Z,100433.88
2022-09-13T22:35:14.159Z,100434.91
2022-09-13T22:37:41.608Z,100439.88
2022-09-13T22:40:09.368Z,100427.22
2022-09-13T22:42:36.639Z,100430.19
2022-09-13T22:45:04.029Z,100432.97
2022-09-13T22:47:31.210Z,100437.16
2022-09-13T22:49:58.486Z,100437.41
2022-09-13T22:52:25.709Z,100432.03
2022-09-13T22:54:52.884Z,100419.97
2022-09-13T22:57:20.219Z,100422.69
2022-09-13T22:59:47.652Z,100415.38
2022-09-13T23:02:14.841Z,100418.81
2022-09-13T23:04:42.125Z,100412.81
2022-09-13T23:07:09.333Z,100412.31
2022-09-13T23:09:36.808Z,100424.81
2022-09-13T23:12:04.719Z,100412.16
2022-09-13T23:14:31.970Z,100415.28
2022-09-13T23:16:59.198Z,100408.97
2022-09-13T23:19:28.177Z,100417.44
2022-09-13T23:21:55.395Z,100418.56
2022-09-13T23:24:24.158Z,100415.13
2022-09-13T23:26:53.962Z,100426.28
2022-09-13T23:29:21.190Z,100436.28
2022-09-13T23:31:48.874Z,100431.28
2022-09-13T23:34:17.685Z,100436.69
2022-09-13T23:36:45.604Z,100429.91
2022-09-13T23:39:16.580Z,100433.50
2022-09-13T23:41:45.104Z,100442.00
2022-09-13T23:44:13.004Z,100433.34
2022-09-13T23:46:40.244Z,100435.69
2022-09-13T23:49:07.427Z,100431.03
2022-09-13T23:51:34.715Z,100436.34
2022-09-13T23:54:01.994Z,100437.09
2022-09-13T23:56:30.481Z,100440.91
2022-09-13T23:58:58.402Z,100443.25
